createdAt,value
2022-08-12T00:00:06.294Z,16.17
2022-08-12T00:02:07.265Z,16.07
2022-08-12T00:04:09.095Z,16.18
2022-08-12T00:06:11.003Z,16.3
2022-08-12T00:08:11.938Z,16.35
2022-08-12T00:10:13.390Z,16.32
2022-08-12T00:12:14.584Z,16.18
2022-08-12T00:14:16.203Z,15.91
2022-08-12T00:16:27.048Z,15.68
2022-08-12T00:18:19.516Z,15.66
2022-08-12T00:19:03.299Z,15.7
2022-08-12T00:21:04.659Z,15.72
2022-08-12T00:23:06.479Z,15.72
2022-08-12T00:25:07.778Z,15.78
2022-08-12T00:27:09.075Z,15.65
2022-08-12T00:29:10.372Z,15.61
2022-08-12T00:31:11.765Z,15.48
2022-08-12T00:33:13.269Z,15.37
2022-08-12T00:35:14.547Z,15.33
2022-08-12T00:37:16.137Z,15.32
2022-08-12T00:39:17.660Z,15.24
2022-08-12T00:41:18.981Z,15.13
2022-08-12T00:43:20.533Z,15.05
2022-08-12T00:45:21.580Z,15.05
2022-08-12T00:47:24.333Z,14.97
2022-08-12T00:49:24.166Z,15.06
2022-08-12T00:53:27.189Z,14.96
2022-08-12T00:55:28.589Z,14.86
2022-08-12T00:57:29.790Z,14.83
2022-08-12T00:59:30.728Z,14.72
2022-08-12T01:02:02.157Z,14.69
2022-08-12T01:03:33.017Z,14.56
2022-08-12T01:05:34.201Z,14.55
2022-08-12T01:07:35.586Z,14.52
2022-08-12T01:09:36.672Z,14.42
2022-08-12T01:11:38.337Z,14.34
2022-08-12T01:13:39.675Z,14.22
2022-08-12T01:15:41.301Z,14.24
2022-08-12T01:17:42.378Z,14.52
2022-08-12T01:19:43.748Z,14.75
2022-08-12T01:21:44.828Z,14.92
2022-08-12T01:23:46.281Z,14.83
2022-08-12T01:25:55.823Z,14.71
2022-08-12T01:27:49.654Z,14.58
2022-08-12T01:29:50.680Z,14.39
2022-08-12T01:31:52.303Z,14.29
2022-08-12T01:33:53.611Z,14.23
2022-08-12T01:35:57.717Z,14.28
2022-08-12T01:37:56.975Z,14.39
2022-08-12T01:40:31.885Z,14.52
2022-08-12T01:41:59.572Z,14.54
2022-08-12T01:44:00.761Z,14.46
2022-08-12T01:46:02.459Z,14.32
2022-08-12T01:48:03.849Z,14.24
2022-08-12T01:50:05.245Z,14.1
2022-08-12T01:52:16.211Z,14.21
2022-08-12T01:54:07.591Z,14.23
2022-08-12T01:56:08.642Z,14.19
2022-08-12T01:58:09.618Z,14.21
2022-08-12T02:00:10.571Z,14.14
2022-08-12T02:02:11.573Z,14.09
2022-08-12T02:04:13.477Z,14.1
2022-08-12T02:06:14.988Z,14.12
2022-08-12T02:08:16.273Z,14.25
2022-08-12T02:10:48.991Z,14.25
2022-08-12T02:12:22.951Z,14.24
2022-08-12T02:14:20.436Z,14.22
2022-08-12T02:16:22.335Z,14.2
2022-08-12T02:18:23.913Z,14.16
2022-08-12T02:20:34.253Z,14.13
2022-08-12T02:22:26.634Z,14.15
2022-08-12T02:24:28.457Z,14.17
2022-08-12T02:26:29.826Z,14.09
2022-08-12T02:28:31.790Z,13.96
2022-08-12T02:30:41.733Z,13.8
2022-08-12T02:32:34.895Z,13.66
2022-08-12T02:34:36.660Z,13.58
2022-08-12T02:36:38.268Z,13.54
2022-08-12T02:38:39.738Z,13.5
2022-08-12T02:40:41.127Z,13.34
2022-08-12T02:42:42.652Z,13.2
2022-08-12T02:44:44.462Z,12.96
2022-08-12T02:46:45.543Z,12.98
2022-08-12T02:48:47.211Z,12.98
2022-08-12T02:50:49.040Z,12.89
2022-08-12T02:52:50.591Z,12.8
2022-08-12T02:54:52.200Z,12.66
2022-08-12T02:56:54.052Z,12.74
2022-08-12T02:58:55.334Z,13.04
2022-08-12T03:00:57.194Z,13.01
2022-08-12T03:02:58.121Z,13.05
2022-08-12T03:04:59.498Z,13.09
2022-08-12T03:07:00.701Z,13.22
2022-08-12T03:09:02.563Z,13.13
2022-08-12T03:11:04.315Z,13.17
2022-08-12T03:13:05.283Z,13.07
2022-08-12T03:15:06.207Z,12.97
2022-08-12T03:17:07.720Z,12.79
2022-08-12T03:19:08.982Z,12.65
2022-08-12T03:21:09.917Z,12.5
2022-08-12T03:23:10.867Z,12.42
2022-08-12T03:25:12.096Z,12.3
2022-08-12T03:27:13.931Z,12.27
2022-08-12T03:29:14.920Z,12.24
2022-08-12T03:31:15.889Z,12.21
2022-08-12T03:33:17.347Z,12.23
2022-08-12T03:35:19.160Z,12.27
2022-08-12T03:37:19.604Z,12.27
2022-08-12T03:39:22.981Z,12.19
2022-08-12T03:41:22.494Z,12.01
2022-08-12T03:43:24.159Z,11.83
2022-08-12T03:45:25.446Z,11.71
2022-08-12T03:47:27.131Z,11.61
2022-08-12T03:49:28.703Z,11.66
2022-08-12T03:51:29.919Z,11.64
2022-08-12T03:53:31.300Z,11.78
2022-08-12T03:55:32.590Z,11.74
2022-08-12T03:57:34.406Z,11.69
2022-08-12T03:59:35.368Z,11.56
2022-08-12T04:01:40.606Z,11.44
2022-08-12T04:03:38.339Z,11.38
2022-08-12T04:05:54.857Z,11.38
2022-08-12T04:07:51.202Z,11.52
2022-08-12T04:09:43.417Z,11.64
2022-08-12T04:11:45.730Z,11.78
2022-08-12T04:13:45.828Z,11.87
2022-08-12T04:15:47.292Z,11.88
2022-08-12T04:18:06.030Z,11.85
2022-08-12T04:19:49.957Z,11.8
2022-08-12T04:22:01.600Z,11.72
2022-08-12T04:23:52.947Z,11.58
2022-08-12T04:25:54.612Z,11.48
2022-08-12T04:27:56.001Z,11.35
2022-08-12T04:30:16.253Z,11.35
2022-08-12T04:31:59.112Z,11.28
2022-08-12T04:34:00.361Z,11.61
2022-08-12T04:36:01.801Z,11.7
2022-08-12T04:38:03.375Z,11.61
2022-08-12T04:40:04.675Z,11.57
2022-08-12T04:42:06.101Z,11.6
2022-08-12T04:44:07.754Z,11.69
2022-08-12T04:46:08.799Z,11.7
2022-08-12T04:48:09.916Z,11.72
2022-08-12T04:50:27.017Z,11.77
2022-08-12T04:52:12.859Z,12.03
2022-08-12T04:54:14.738Z,12.31
2022-08-12T04:56:15.895Z,12.46
2022-08-12T04:58:29.210Z,12.78
2022-08-12T05:00:18.399Z,13.53
2022-08-12T05:02:20.749Z,13.77
2022-08-12T05:04:21.540Z,13.41
2022-08-12T05:06:26.991Z,13.2
2022-08-12T05:08:24.618Z,12.97
2022-08-12T05:10:33.322Z,12.87
2022-08-12T05:12:26.974Z,12.96
2022-08-12T05:14:28.725Z,13.07
2022-08-12T05:16:31.063Z,13.11
2022-08-12T05:18:31.577Z,13.15
2022-08-12T05:20:32.768Z,13.23
2022-08-12T05:22:37.039Z,13.16
2022-08-12T05:24:35.592Z,13.29
2022-08-12T05:26:36.856Z,13.35
2022-08-12T05:28:38.417Z,13.69
2022-08-12T05:30:39.977Z,13.57
2022-08-12T05:32:41.638Z,13.69
2022-08-12T05:34:42.968Z,13.91
2022-08-12T05:36:44.365Z,14.21
2022-08-12T05:38:45.930Z,14.62
2022-08-12T05:40:47.381Z,14.43
2022-08-12T05:42:49.144Z,14.29
2022-08-12T05:44:50.916Z,14.54
2022-08-12T05:46:52.365Z,14.86
2022-08-12T05:48:53.467Z,15.14
2022-08-12T05:50:54.661Z,15.39
2022-08-12T05:52:55.710Z,15.45
2022-08-12T05:54:58.040Z,15.24
2022-08-12T05:56:58.350Z,15.57
2022-08-12T05:58:59.222Z,15.85
2022-08-12T06:01:00.074Z,16.46
2022-08-12T06:03:01.795Z,16.39
2022-08-12T06:05:03.263Z,17.19
2022-08-12T06:07:37.182Z,17.46
2022-08-12T06:09:05.597Z,17.79
2022-08-12T06:11:07.002Z,17.85
2022-08-12T06:13:08.077Z,17.83
2022-08-12T06:15:09.694Z,17.79
2022-08-12T06:17:10.770Z,18.57
2022-08-12T06:19:12.063Z,19.11
2022-08-12T06:21:13.337Z,19.23
2022-08-12T06:23:14.586Z,19.35
2022-08-12T06:25:17.465Z,19.01
2022-08-12T06:27:17.358Z,18.04
2022-08-12T06:30:07.608Z,18.07
2022-08-12T06:31:26.032Z,17.73
2022-08-12T06:33:22.685Z,17.97
2022-08-12T06:35:24.539Z,18.18
2022-08-12T06:37:25.343Z,17.89
2022-08-12T06:39:24.637Z,18.17
2022-08-12T06:41:26.353Z,18.75
2022-08-12T06:43:27.506Z,18.74
2022-08-12T06:45:45.853Z,18.72
2022-08-12T06:47:29.698Z,18.64
2022-08-12T06:49:30.750Z,18.87
2022-08-12T06:51:32.616Z,18.81
2022-08-12T06:53:33.451Z,18.94
2022-08-12T06:55:34.810Z,19.3
2022-08-12T06:57:57.686Z,19.79
2022-08-12T06:59:36.916Z,19.5
2022-08-12T07:01:38.034Z,19.72
2022-08-12T07:03:39.711Z,19.57
2022-08-12T07:04:36.088Z,19.68
2022-08-12T07:06:24.477Z,19.76
2022-08-12T07:08:26.055Z,19.82
2022-08-12T07:10:27.380Z,20.12
2022-08-12T07:12:28.710Z,20.46
2022-08-12T07:14:29.203Z,20.65
2022-08-12T07:16:30.395Z,21.32
2022-08-12T07:18:31.344Z,22.1
2022-08-12T07:20:51.531Z,22.05
2022-08-12T07:22:34.143Z,22.86
2022-08-12T07:24:35.084Z,23.1
2022-08-12T07:26:36.705Z,23.69
2022-08-12T07:28:37.528Z,23.68
2022-08-12T07:30:38.585Z,23.88
2022-08-12T07:32:39.887Z,23.44
2022-08-12T07:34:41.399Z,23.46
2022-08-12T07:36:42.357Z,23.4
2022-08-12T07:38:43.405Z,23.52
2022-08-12T07:40:45.018Z,24.04
2022-08-12T07:42:45.928Z,24.08
2022-08-12T07:44:47.111Z,24.46
2022-08-12T07:46:48.422Z,23.62
2022-08-12T07:48:49.860Z,23.83
2022-08-12T07:50:50.990Z,23.62
2022-08-12T07:52:52.756Z,24.03
2022-08-12T07:54:54.229Z,24.34
2022-08-12T07:56:55.984Z,24.53
2022-08-12T07:58:57.176Z,23.94
2022-08-12T08:00:58.016Z,23.61
2022-08-12T08:02:58.987Z,24.76
2022-08-12T08:05:00.593Z,24.68
2022-08-12T08:07:01.888Z,24.55
2022-08-12T08:09:03.055Z,24.57
2022-08-12T08:11:04.789Z,24.47
2022-08-12T08:13:06.021Z,24.31
2022-08-12T08:15:07.186Z,24.98
2022-08-12T08:17:08.419Z,24.74
2022-08-12T08:19:09.576Z,24.62
2022-08-12T08:21:10.388Z,25.1
2022-08-12T08:23:11.879Z,25.17
2022-08-12T08:25:35.459Z,24.75
2022-08-12T08:27:15.034Z,24.79
2022-08-12T08:29:16.065Z,24.74
2022-08-12T08:31:17.487Z,25.14
2022-08-12T08:33:20.161Z,25.39
2022-08-12T08:35:19.235Z,25.38
2022-08-12T08:37:20.168Z,25.28
2022-08-12T08:39:21.629Z,25.08
2022-08-12T08:42:13.288Z,25.32
2022-08-12T08:43:24.344Z,25.75
2022-08-12T08:45:25.400Z,24.85
2022-08-12T08:47:26.457Z,25.25
2022-08-12T08:49:27.993Z,25.32
2022-08-12T08:51:29.267Z,25.18
2022-08-12T08:53:30.070Z,25.33
2022-08-12T08:55:48.185Z,25.76
2022-08-12T08:57:43.267Z,25.66
2022-08-12T08:59:34.023Z,25.96
2022-08-12T09:01:37.654Z,25.58
2022-08-12T09:05:07.107Z,25.78
2022-08-12T09:05:43.363Z,25.83
2022-08-12T09:07:43.720Z,25.95
2022-08-12T09:10:01.363Z,26.29
2022-08-12T09:11:52.363Z,26.51
2022-08-12T09:14:10.346Z,25.84
2022-08-12T09:15:44.340Z,25.95
2022-08-12T09:17:45.801Z,26.36
2022-08-12T09:19:47.580Z,26.38
2022-08-12T09:21:54.450Z,26.4
2022-08-12T09:23:58.045Z,26.31
2022-08-12T09:25:51.364Z,26.32
2022-08-12T09:27:58.108Z,26.56
2022-08-12T09:30:09.242Z,26.29
2022-08-12T09:32:04.424Z,26.55
2022-08-12T09:34:25.081Z,26.96
2022-08-12T09:36:03.382Z,27.39
2022-08-12T09:37:59.480Z,27.14
2022-08-12T09:40:02.719Z,26.85
2022-08-12T09:42:08.260Z,26.81
2022-08-12T09:44:04.937Z,27.11
2022-08-12T09:46:07.257Z,26.85
2022-08-12T09:48:04.736Z,26.58
2022-08-12T09:50:06.095Z,26.77
2022-08-12T09:52:07.361Z,26.88
2022-08-12T09:54:30.698Z,26.52
2022-08-12T09:56:56.733Z,27.27
2022-08-12T09:58:46.284Z,26.68
2022-08-12T10:00:19.325Z,26.61
2022-08-12T10:02:43.728Z,27.35
2022-08-12T10:06:20.884Z,27.77
2022-08-12T10:08:17.493Z,27.84
2022-08-12T10:10:23.107Z,27.37
2022-08-12T10:12:31.212Z,26.6
2022-08-12T10:14:21.538Z,27.33
2022-08-12T10:16:23.023Z,27.31
2022-08-12T10:18:23.492Z,27.23
2022-08-12T10:22:36.970Z,27.14
2022-08-12T10:24:26.724Z,27.12
2022-08-12T10:26:38.313Z,27.25
2022-08-12T10:28:29.169Z,27.64
2022-08-12T10:30:39.237Z,27.84
2022-08-12T10:32:43.377Z,27.38
2022-08-12T10:34:32.795Z,27.24
2022-08-12T10:36:36.488Z,26.98
2022-08-12T10:38:41.310Z,27.89
2022-08-12T10:40:37.742Z,27.49
2022-08-12T10:42:38.310Z,27.23
2022-08-12T10:44:39.889Z,27.79
2022-08-12T10:46:41.395Z,27.62
2022-08-12T10:48:42.805Z,27.69
2022-08-12T10:50:56.565Z,28.04
2022-08-12T10:52:45.852Z,28.27
2022-08-12T10:54:49.196Z,27.82
2022-08-12T10:56:48.476Z,27.61
2022-08-12T10:58:50.080Z,27.49
2022-08-12T11:00:55.696Z,27.8
2022-08-12T11:04:21.247Z,27.77
2022-08-12T11:04:54.654Z,27.41
2022-08-12T11:07:04.042Z,27.34
2022-08-12T11:08:56.566Z,27.88
2022-08-12T11:10:57.554Z,28.32
2022-08-12T11:13:00.486Z,28.02
2022-08-12T11:15:00.052Z,27.68
2022-08-12T11:17:06.546Z,27.4
2022-08-12T11:19:05.517Z,28.1
2022-08-12T11:21:05.759Z,27.54
2022-08-12T11:23:24.767Z,27.85
2022-08-12T11:25:10.324Z,28.24
2022-08-12T11:27:10.915Z,27.78
2022-08-12T11:29:22.039Z,27.99
2022-08-12T11:31:12.464Z,28.57
2022-08-12T11:33:24.289Z,28.98
2022-08-12T11:35:14.218Z,28.72
2022-08-12T11:37:23.385Z,29.13
2022-08-12T11:39:16.754Z,29.37
2022-08-12T11:41:18.077Z,29.32
2022-08-12T11:43:20.404Z,27.79
2022-08-12T11:47:21.038Z,28.43
2022-08-12T11:49:30.887Z,28.1
2022-08-12T11:51:23.184Z,28.11
2022-08-12T11:53:56.789Z,28.14
2022-08-12T11:55:25.117Z,28.59
2022-08-12T11:58:14.486Z,28.06
2022-08-12T12:02:00.511Z,28.07
2022-08-12T12:03:40.394Z,28.33
2022-08-12T12:05:39.440Z,28.59
2022-08-12T12:08:36.840Z,29.3
2022-08-12T12:09:52.109Z,29.3
2022-08-12T12:11:39.085Z,28.83
2022-08-12T12:14:07.201Z,28.79
2022-08-12T12:15:41.009Z,28.52
2022-08-12T12:17:38.853Z,28.57
2022-08-12T12:19:45.537Z,29.33
2022-08-12T12:21:46.885Z,29.2
2022-08-12T12:23:46.908Z,29.53
2022-08-12T12:25:59.130Z,29.64
2022-08-12T12:28:05.353Z,29.84
2022-08-12T12:30:14.323Z,29.08
2022-08-12T12:32:06.490Z,29.63
2022-08-12T12:33:57.639Z,30.09
2022-08-12T12:36:06.795Z,28.72
2022-08-12T12:38:03.400Z,29.8
2022-08-12T12:39:54.957Z,28.87
2022-08-12T12:42:42.399Z,28.43
2022-08-12T12:44:03.564Z,27.88
2022-08-12T12:45:57.909Z,28.34
2022-08-12T12:47:58.889Z,28.34
2022-08-12T12:50:00.405Z,27.34
2022-08-12T12:52:20.914Z,28.01
2022-08-12T12:54:05.442Z,28.14
2022-08-12T12:56:03.718Z,28.21
2022-08-12T12:58:04.960Z,29.25
2022-08-12T13:00:06.067Z,28.81
2022-08-12T13:02:08.520Z,29.75
2022-08-12T13:04:12.049Z,28.9
2022-08-12T13:06:09.940Z,28.8
2022-08-12T13:08:11.713Z,27.85
2022-08-12T13:10:13.326Z,28.28
2022-08-12T13:12:13.842Z,28.85
2022-08-12T13:14:28.480Z,28.7
2022-08-12T13:16:18.654Z,28.79
2022-08-12T13:18:18.010Z,28.72
2022-08-12T13:20:37.589Z,29.55
2022-08-12T13:22:21.788Z,28.81
2022-08-12T13:24:21.843Z,28.79
2022-08-12T13:28:24.194Z,29.12
2022-08-12T13:30:24.978Z,29.37
2022-08-12T13:32:30.647Z,29.06
2022-08-12T13:34:28.354Z,29.48
2022-08-12T13:36:28.454Z,29.82
2022-08-12T13:38:34.655Z,29.36
2022-08-12T13:40:30.719Z,29.5
2022-08-12T13:42:32.337Z,29.04
2022-08-12T13:44:34.022Z,29.6
2022-08-12T13:46:35.596Z,28.7
2022-08-12T13:48:36.378Z,28.66
2022-08-12T13:49:54.304Z,28.52
2022-08-12T13:51:24.563Z,28.97
2022-08-12T13:53:25.035Z,29.66
2022-08-12T13:55:24.355Z,29.71
2022-08-12T13:57:25.622Z,29.29
2022-08-12T13:59:26.593Z,29.01
2022-08-12T14:01:27.672Z,29.09
2022-08-12T14:03:50.079Z,29.38
2022-08-12T14:05:31.533Z,29.22
2022-08-12T14:07:31.611Z,30.27
2022-08-12T14:09:33.251Z,29.73
2022-08-12T14:11:34.220Z,29.32
2022-08-12T14:14:04.519Z,29.79
2022-08-12T14:15:37.512Z,29.59
2022-08-12T14:17:38.438Z,29.54
2022-08-12T14:19:45.239Z,29.17
2022-08-12T14:21:58.928Z,29.11
2022-08-12T14:24:01.667Z,28.32
2022-08-12T14:25:43.664Z,28.51
2022-08-12T14:28:03.147Z,28.3
2022-08-12T14:30:05.225Z,27.8
2022-08-12T14:31:48.160Z,27.86
2022-08-12T14:33:49.285Z,28.48
2022-08-12T14:35:50.494Z,28.35
2022-08-12T14:37:55.807Z,28.71
2022-08-12T14:39:52.829Z,28.87
2022-08-12T14:41:57.076Z,29.13
2022-08-12T14:43:59.212Z,28.84
2022-08-12T14:45:57.302Z,29.55
2022-08-12T14:47:58.914Z,29.92
2022-08-12T14:50:01.656Z,29.47
2022-08-12T14:52:39.115Z,28.94
2022-08-12T14:56:30.643Z,29.24
2022-08-12T14:58:06.983Z,29.02
2022-08-12T15:00:07.248Z,28.92
2022-08-12T15:02:10.333Z,29.01
2022-08-12T15:04:09.522Z,28.84
2022-08-12T15:06:38.855Z,28.82
2022-08-12T15:08:12.286Z,28.34
2022-08-12T15:10:13.464Z,28.56
2022-08-12T15:12:14.347Z,29.09
2022-08-12T15:14:15.817Z,29.23
2022-08-12T15:16:18.646Z,29.31
2022-08-12T15:18:21.298Z,29.27
2022-08-12T15:20:32.106Z,29.25
2022-08-12T15:22:36.324Z,29.27
2022-08-12T15:24:22.401Z,29.38
2022-08-12T15:26:26.741Z,28.54
2022-08-12T15:28:25.440Z,28.81
2022-08-12T15:30:26.656Z,29.12
2022-08-12T15:32:31.927Z,28.99
2022-08-12T15:34:30.736Z,28.01
2022-08-12T15:36:50.280Z,28.11
2022-08-12T15:38:31.652Z,28.36
2022-08-12T15:40:32.637Z,28.41
2022-08-12T15:42:34.064Z,28.35
2022-08-12T15:44:37.638Z,28.44
2022-08-12T15:46:36.679Z,28.45
2022-08-12T15:48:37.502Z,28.59
2022-08-12T15:50:38.980Z,28.55
2022-08-12T15:52:40.315Z,28.31
2022-08-12T15:54:44.771Z,28.62
2022-08-12T15:56:42.933Z,28.31
2022-08-12T15:58:44.479Z,28.55
2022-08-12T16:00:45.793Z,28.5
2022-08-12T16:02:50.253Z,28.47
2022-08-12T16:04:48.301Z,28.88
2022-08-12T16:07:03.591Z,28.73
2022-08-12T16:08:51.267Z,28.85
2022-08-12T16:10:52.890Z,28.38
2022-08-12T16:12:54.365Z,28.54
2022-08-12T16:14:54.438Z,28.89
2022-08-12T16:16:55.787Z,28.72
2022-08-12T16:18:59.819Z,28.47
2022-08-12T16:20:58.831Z,28.32
2022-08-12T16:23:04.079Z,28.56
2022-08-12T16:25:00.807Z,28.48
2022-08-12T16:27:01.631Z,28.59
2022-08-12T16:29:14.875Z,28.62
2022-08-12T16:31:04.710Z,28.91
2022-08-12T16:33:05.773Z,28.46
2022-08-12T16:35:07.982Z,28.47
2022-08-12T16:37:08.376Z,28.26
2022-08-12T16:39:09.343Z,27.81
2022-08-12T16:41:10.376Z,27.67
2022-08-12T16:43:13.166Z,27.83
2022-08-12T16:45:13.610Z,28.09
2022-08-12T16:47:14.599Z,27.79
2022-08-12T16:49:15.252Z,27.92
2022-08-12T16:51:16.335Z,27.84
2022-08-12T16:53:17.760Z,27.84
2022-08-12T16:55:19.351Z,28.07
2022-08-12T16:57:34.753Z,27.78
2022-08-12T16:59:21.387Z,27.8
2022-08-12T17:01:22.769Z,28.11
2022-08-12T17:03:28.697Z,27.87
2022-08-12T17:05:24.400Z,27.8
2022-08-12T17:07:25.327Z,27.68
2022-08-12T17:09:26.596Z,27.36
2022-08-12T17:11:28.319Z,27.25
2022-08-12T17:13:29.739Z,27.12
2022-08-12T17:15:51.540Z,26.93
2022-08-12T17:17:48.108Z,26.87
2022-08-12T17:19:34.118Z,26.82
2022-08-12T17:21:40.481Z,26.78
2022-08-12T17:23:47.876Z,26.74
2022-08-12T17:25:37.201Z,26.63
2022-08-12T17:27:38.685Z,26.62
2022-08-12T17:30:01.725Z,26.47
2022-08-12T17:31:59.495Z,26.41
2022-08-12T17:33:43.246Z,26.34
2022-08-12T17:35:49.895Z,26.33
2022-08-12T17:37:45.147Z,26.3
2022-08-12T17:40:07.901Z,26.22
2022-08-12T17:41:56.172Z,26.1
2022-08-12T17:43:51.566Z,26.16
2022-08-12T17:45:50.499Z,25.98
2022-08-12T17:48:02.024Z,25.96
2022-08-12T17:50:01.636Z,25.8
2022-08-12T17:52:02.171Z,25.88
2022-08-12T17:54:06.557Z,25.8
2022-08-12T17:55:56.510Z,25.81
2022-08-12T17:57:57.717Z,25.82
2022-08-12T17:59:59.251Z,25.69
2022-08-12T18:02:00.177Z,25.53
2022-08-12T18:04:14.096Z,25.47
2022-08-12T18:06:06.305Z,25.38
2022-08-12T18:08:03.950Z,25.52
2022-08-12T18:10:04.838Z,25.41
2022-08-12T18:12:07.629Z,25.34
2022-08-12T18:14:07.017Z,25.3
2022-08-12T18:16:08.736Z,25.3
2022-08-12T18:18:16.588Z,25.1
2022-08-12T18:20:15.881Z,25.03
2022-08-12T18:22:12.428Z,24.97
2022-08-12T18:24:21.770Z,24.87
2022-08-12T18:26:17.362Z,24.84
2022-08-12T18:28:19.380Z,24.73
2022-08-12T18:30:20.644Z,24.53
2022-08-12T18:32:34.620Z,24.38
2022-08-12T18:34:21.164Z,24.19
2022-08-12T18:36:23.330Z,24.05
2022-08-12T18:38:24.430Z,23.81
2022-08-12T18:40:24.967Z,23.6
2022-08-12T18:42:26.164Z,23.45
2022-08-12T18:44:27.300Z,23.4
2022-08-12T18:46:29.204Z,23.29
2022-08-12T18:48:30.367Z,23.19
2022-08-12T18:50:48.882Z,23.31
2022-08-12T18:52:33.091Z,23.19
2022-08-12T18:54:34.386Z,23.32
2022-08-12T18:56:35.772Z,23.11
2022-08-12T18:58:36.843Z,23.03
2022-08-12T19:00:38.338Z,22.91
2022-08-12T19:02:39.743Z,23.07
2022-08-12T19:04:40.353Z,23.29
2022-08-12T19:06:41.936Z,23.1
2022-08-12T19:08:43.764Z,22.89
2022-08-12T19:10:50.025Z,22.59
2022-08-12T19:12:55.716Z,22.4
2022-08-12T19:14:47.523Z,22.22
2022-08-12T19:16:48.641Z,22.08
2022-08-12T19:18:50.023Z,22
2022-08-12T19:20:51.433Z,21.95
2022-08-12T19:22:57.997Z,21.78
2022-08-12T19:26:57.231Z,21.72
2022-08-12T19:28:57.379Z,21.58
2022-08-12T19:30:59.051Z,21.76
2022-08-12T19:33:00.312Z,21.77
2022-08-12T19:37:02.820Z,21.75
2022-08-12T19:39:15.058Z,21.61
2022-08-12T19:41:05.563Z,21.6
2022-08-12T19:43:13.181Z,21.83
2022-08-12T19:45:12.135Z,21.67
2022-08-12T19:47:10.187Z,21.66
2022-08-12T19:49:11.080Z,21.57
2022-08-12T19:51:22.491Z,21.55
2022-08-12T19:53:13.874Z,21.94
2022-08-12T19:55:21.208Z,22
2022-08-12T19:57:17.046Z,21.6
2022-08-12T19:59:18.611Z,21.49
2022-08-12T20:01:19.536Z,21.54
2022-08-12T20:03:39.694Z,21.37
2022-08-12T20:05:25.593Z,21.05
2022-08-12T20:07:24.554Z,20.9
2022-08-12T20:09:26.120Z,20.73
2022-08-12T20:12:10.896Z,20.63
2022-08-12T20:13:37.158Z,20.53
2022-08-12T20:15:44.663Z,20.43
2022-08-12T20:17:34.514Z,20.32
2022-08-12T20:19:53.352Z,20.16
2022-08-12T20:21:40.148Z,20.18
2022-08-12T20:23:37.061Z,20.04
2022-08-12T20:25:52.041Z,19.84
2022-08-12T20:28:03.954Z,19.79
2022-08-12T20:29:45.715Z,19.81
2022-08-12T20:31:40.016Z,19.82
2022-08-12T20:33:51.029Z,19.69
2022-08-12T20:36:40.416Z,19.52
2022-08-12T20:38:28.468Z,19.52
2022-08-12T20:40:29.745Z,19.71
2022-08-12T20:42:31.473Z,19.99
2022-08-12T20:44:33.011Z,20.03
2022-08-12T20:46:34.006Z,20.01
2022-08-12T20:48:34.881Z,19.92
2022-08-12T20:50:35.852Z,20.81
2022-08-12T20:52:37.569Z,21.43
2022-08-12T20:54:40.665Z,21.06
2022-08-12T20:56:40.622Z,20.87
2022-08-12T20:58:42.030Z,20.79
2022-08-12T21:00:43.172Z,20.45
2022-08-12T21:02:45.049Z,20.12
2022-08-12T21:04:45.938Z,19.98
2022-08-12T21:06:47.395Z,19.91
2022-08-12T21:08:49.102Z,19.82
2022-08-12T21:10:51.199Z,20.05
2022-08-12T21:12:52.507Z,19.87
2022-08-12T21:14:54.379Z,19.84
2022-08-12T21:16:55.394Z,19.77
2022-08-12T21:18:56.931Z,19.62
2022-08-12T21:20:57.979Z,19.52
2022-08-12T21:22:59.647Z,19.55
2022-08-12T21:25:01.186Z,19.38
2022-08-12T21:27:03.386Z,19.34
2022-08-12T21:29:04.619Z,19.29
2022-08-12T21:31:11.960Z,19.13
2022-08-12T21:33:10.534Z,19.01
2022-08-12T21:35:08.384Z,19.02
2022-08-12T21:37:13.331Z,18.94
2022-08-12T21:39:17.721Z,18.79
2022-08-12T21:41:15.745Z,18.8
2022-08-12T21:43:12.717Z,18.85
2022-08-12T21:45:45.042Z,18.82
2022-08-12T21:47:19.737Z,19.02
2022-08-12T21:49:16.400Z,18.98
2022-08-12T21:51:22.838Z,18.95
2022-08-12T21:53:19.707Z,18.86
2022-08-12T21:55:21.254Z,18.85
2022-08-12T21:57:23.079Z,18.84
2022-08-12T21:59:24.140Z,18.9
2022-08-12T22:01:25.096Z,18.85
2022-08-12T22:04:02.447Z,19.04
2022-08-12T22:05:27.581Z,18.58
2022-08-12T22:07:29.353Z,18.42
2022-08-12T22:09:42.479Z,18.81
2022-08-12T22:11:41.374Z,18.82
2022-08-12T22:14:02.644Z,18.53
2022-08-12T22:15:35.659Z,18.82
2022-08-12T22:17:49.410Z,18.56
2022-08-12T22:19:38.133Z,18.44
2022-08-12T22:21:48.414Z,18.15
2022-08-12T22:23:52.363Z,18.06
2022-08-12T22:25:41.458Z,17.89
2022-08-12T22:27:42.711Z,17.76
2022-08-12T22:29:43.631Z,17.61
2022-08-12T22:31:45.780Z,17.56
2022-08-12T22:33:50.859Z,17.45
2022-08-12T22:35:56.516Z,17.48
2022-08-12T22:37:49.003Z,17.54
2022-08-12T22:39:50.947Z,17.48
2022-08-12T22:41:53.137Z,17.48
2022-08-12T22:43:59.380Z,17.6
2022-08-12T22:45:56.363Z,17.54
2022-08-12T22:47:56.387Z,17.48
2022-08-12T22:49:59.432Z,17.36
2022-08-12T22:52:00.450Z,17.49
2022-08-12T22:54:00.275Z,17.53
2022-08-12T22:56:06.026Z,17.57
2022-08-12T22:58:02.664Z,17.49
2022-08-12T23:00:03.809Z,17.53
2022-08-12T23:02:05.324Z,17.52
2022-08-12T23:04:06.802Z,17.48
2022-08-12T23:06:09.855Z,17.37
2022-08-12T23:08:09.596Z,17.33
2022-08-12T23:10:11.341Z,17.29
2022-08-12T23:12:22.383Z,17.14
2022-08-12T23:14:14.131Z,17.14
2022-08-12T23:16:18.047Z,17.05
2022-08-12T23:18:16.869Z,17.04
2022-08-12T23:20:18.199Z,16.92
2022-08-12T23:22:35.568Z,16.96
2022-08-12T23:24:20.584Z,16.95
2022-08-12T23:26:21.837Z,16.87
2022-08-12T23:28:29.707Z,16.69
2022-08-12T23:30:24.849Z,16.4
2022-08-12T23:32:35.478Z,16.56
2022-08-12T23:34:30.819Z,16.67
2022-08-12T23:36:31.626Z,16.59
2022-08-12T23:38:31.195Z,16.49
2022-08-12T23:40:31.545Z,16.4
2022-08-12T23:42:32.832Z,16.38
2022-08-12T23:44:33.981Z,16.38
2022-08-12T23:46:35.190Z,16.31
2022-08-12T23:48:36.943Z,16.28
2022-08-12T23:50:38.570Z,16.35
2022-08-12T23:52:39.551Z,16.42
2022-08-12T23:54:44.145Z,16.32
2022-08-12T23:56:43.723Z,16.13
2022-08-12T23:58:44.391Z,15.96
